Time;durP1;ratioP1;P1;durP2;ratioP2;P2;SDS_P1;SDS_P2;PMS_P1;PMS_P2;Temp;Humidity;BMP_temperature;BMP_pressure;BME280_temperature;BME280_humidity;BME280_pressure;Samples;Min_cycle;Max_cycle;Signal;HPM_P1;HPM_P2
2022/06/12 00:00:27;;;;;;;6.32;2.53;;;;;;;13.89;78.81;102229.19;5052799;28;20048;-63
2022/06/12 00:02:53;;;;;;;9.00;2.72;;;;;;;13.74;79.67;102230.03;5053590;28;20047;-63
2022/06/12 00:05:21;;;;;;;9.27;2.40;;;;;;;13.66;80.17;102227.78;5053503;28;20415;-63
2022/06/12 00:07:46;;;;;;;5.25;1.80;;;;;;;13.64;80.33;102226.97;5054472;28;20990;-63
2022/06/12 00:10:13;;;;;;;10.90;2.75;;;;;;;13.67;79.74;102231.31;5054113;28;20045;-63
2022/06/12 00:12:41;;;;;;;7.55;2.03;;;;;;;13.78;79.44;102228.91;5054890;28;20028;-63
2022/06/12 00:15:07;;;;;;;6.32;2.22;;;;;;;13.78;78.36;102228.91;5053210;28;20028;-63
2022/06/12 00:17:33;;;;;;;7.63;2.22;;;;;;;13.73;78.65;102228.31;5035174;28;20055;-63
2022/06/12 00:19:58;;;;;;;6.38;1.60;;;;;;;13.87;77.16;102223.06;5046762;28;20033;-63
2022/06/12 00:22:24;;;;;;;6.88;1.92;;;;;;;13.85;78.22;102224.94;5053016;28;20047;-63
2022/06/12 00:24:49;;;;;;;3.65;1.70;;;;;;;13.87;77.70;102225.72;5053110;28;20132;-63
2022/06/12 00:27:15;;;;;;;7.00;1.77;;;;;;;13.63;79.10;102224.38;5037340;28;20037;-63
2022/06/12 00:29:42;;;;;;;151.35;79.28;;;;;;;13.59;79.04;102218.31;5045625;28;20032;-64
2022/06/12 00:32:09;;;;;;;4.88;1.98;;;;;;;13.57;77.76;102214.00;5051527;28;20028;-63
2022/06/12 00:34:38;;;;;;;4.35;1.83;;;;;;;13.44;79.42;102216.47;5052936;28;20044;-62
2022/06/12 00:37:04;;;;;;;5.72;1.90;;;;;;;13.30;79.67;102219.88;5052871;28;20032;-63
2022/06/12 00:39:32;;;;;;;4.88;1.77;;;;;;;13.31;80.29;102216.25;5053625;28;20661;-64
2022/06/12 00:41:59;;;;;;;4.57;1.77;;;;;;;13.19;80.38;102208.81;5053462;28;20124;-63
2022/06/12 00:44:40;;;;;;;6.07;2.05;;;;;;;13.21;79.84;102206.94;5052294;28;20066;-63
2022/06/12 00:47:10;;;;;;;9.77;1.70;;;;;;;13.12;80.71;102212.78;5052601;28;20064;-63
2022/06/12 00:49:47;;;;;;;5.63;2.10;;;;;;;12.94;81.81;102225.28;5052621;28;20075;-64
2022/06/12 00:52:35;;;;;;;3.47;1.92;;;;;;;12.89;81.72;102221.97;5051124;28;20832;-62
2022/06/12 00:55:11;;;;;;;5.43;1.65;;;;;;;12.72;81.98;102222.00;5052152;28;20159;-63
2022/06/12 00:57:37;;;;;;;6.70;2.15;;;;;;;12.76;81.40;102221.75;5034337;28;20284;-63
2022/06/12 01:00:13;;;;;;;10.45;2.00;;;;;;;12.53;81.96;102224.69;5051606;28;20146;-63
2022/06/12 01:02:40;;;;;;;5.18;1.92;;;;;;;12.73;81.08;102226.38;5052845;28;20028;-63
2022/06/12 01:07:57;;;;;;;8.65;2.47;;;;;;;13.02;80.38;102223.09;5051802;28;20036;-63
2022/06/12 01:10:28;;;;;;;6.18;2.13;;;;;;;13.05;79.75;102222.97;5051637;28;20115;-64
2022/06/12 01:13:09;;;;;;;6.20;1.80;;;;;;;13.19;79.45;102215.03;5033910;28;20036;-63
2022/06/12 01:15:41;;;;;;;12.98;2.55;;;;;;;13.52;77.81;102216.94;5053072;28;20036;-63
2022/06/12 01:18:10;;;;;;;12.30;2.55;;;;;;;13.52;78.01;102214.25;5051659;28;20044;-64
2022/06/12 01:20:47;;;;;;;13.57;3.08;;;;;;;13.61;77.72;102211.09;5053500;28;20041;-64
2022/06/12 01:23:49;;;;;;;8.80;2.40;;;;;;;13.64;77.58;102210.03;5037648;28;20219;-62
2022/06/12 01:26:51;;;;;;;9.33;2.93;;;;;;;13.74;76.75;102214.81;5050436;28;20143;-64
2022/06/12 01:29:37;;;;;;;5.55;2.55;;;;;;;13.53;78.41;102207.94;5050865;28;20159;-63
2022/06/12 01:32:28;;;;;;;15.38;2.38;;;;;;;13.61;78.21;102207.53;5051722;28;20079;-62
2022/06/12 01:35:11;;;;;;;8.63;2.05;;;;;;;13.57;78.23;102206.81;5051926;28;20056;-63
2022/06/12 01:37:56;;;;;;;7.15;2.08;;;;;;;13.52;78.71;102216.06;5052408;28;20048;-63
2022/06/12 01:40:52;;;;;;;12.07;2.50;;;;;;;13.45;79.40;102211.03;5051271;28;20646;-64
2022/06/12 01:43:27;;;;;;;15.07;3.05;;;;;;;13.37;79.97;102205.22;5051295;28;20032;-63
2022/06/12 01:46:15;;;;;;;13.93;2.40;;;;;;;13.35;80.22;102198.19;5051921;28;20036;-63
2022/06/12 01:49:10;;;;;;;11.20;3.00;;;;;;;13.21;80.92;102205.16;5051574;28;20032;-62
2022/06/12 01:52:01;;;;;;;12.70;3.05;;;;;;;13.30;80.73;102203.78;5050939;28;20037;-63
2022/06/12 01:54:39;;;;;;;15.10;3.13;;;;;;;13.34;79.85;102196.47;5043047;28;20240;-62
2022/06/12 01:57:13;;;;;;;11.60;2.75;;;;;;;13.27;80.80;102198.63;5050484;28;20047;-63
2022/06/12 02:00:02;;;;;;;13.75;2.88;;;;;;;13.19;81.18;102198.97;5051684;28;20040;-63
2022/06/12 02:02:46;;;;;;;13.48;3.08;;;;;;;13.14;81.89;102200.16;5051946;28;20040;-63
2022/06/12 02:05:23;;;;;;;10.82;3.00;;;;;;;13.07;82.27;102199.63;5032500;28;20063;-63
2022/06/12 02:07:58;;;;;;;7.82;2.75;;;;;;;12.88;83.40;102199.69;5034032;28;20874;-62
2022/06/12 02:10:34;;;;;;;11.63;3.10;;;;;;;12.90;83.45;102199.63;5050169;28;20079;-62
2022/06/12 02:13:24;;;;;;;14.10;2.75;;;;;;;12.64;84.54;102203.63;5051016;28;20161;-62
2022/06/12 02:15:59;;;;;;;6.15;2.30;;;;;;;12.60;84.55;102202.94;5050245;28;20056;-63
2022/06/12 02:18:39;;;;;;;15.00;3.35;;;;;;;12.42;86.21;102215.41;5050607;28;20036;-64
2022/06/12 02:21:10;;;;;;;5.68;2.65;;;;;;;12.38;86.03;102204.91;5050198;28;20040;-62
2022/06/12 02:23:48;;;;;;;7.30;3.03;;;;;;;12.37;85.62;102208.53;5051326;28;20071;-63
2022/06/12 02:26:18;;;;;;;8.43;3.25;;;;;;;12.28;86.63;102201.81;5050712;28;20066;-63
2022/06/12 02:28:51;;;;;;;7.82;2.88;;;;;;;12.15;87.42;102193.53;5051619;28;20028;-63
2022/06/12 02:31:21;;;;;;;8.02;2.85;;;;;;;12.36;86.71;102196.13;5050290;28;20521;-62
2022/06/12 02:33:52;;;;;;;13.05;3.28;;;;;;;12.41;86.52;102202.09;5052017;28;20040;-62
2022/06/12 02:36:25;;;;;;;10.60;3.10;;;;;;;12.25;87.07;102195.75;5050739;28;20783;-62
2022/06/12 02:38:57;;;;;;;9.15;2.92;;;;;;;12.06;87.99;102196.66;5036444;28;20048;-62
2022/06/12 02:41:29;;;;;;;9.32;3.50;;;;;;;11.95;88.75;102193.63;5049971;28;20128;-62
2022/06/12 02:44:00;;;;;;;7.85;3.17;;;;;;;12.01;88.44;102196.00;5049750;28;20148;-62
2022/06/12 02:46:44;;;;;;;7.10;3.25;;;;;;;11.76;89.39;102193.59;5049683;28;20423;-62
2022/06/12 02:49:10;;;;;;;9.32;3.38;;;;;;;11.73;89.69;102191.06;5049374;28;20336;-63
2022/06/12 02:51:53;;;;;;;11.75;3.40;;;;;;;11.82;89.54;102184.44;5050603;28;20048;-63
2022/06/12 02:54:36;;;;;;;13.77;3.60;;;;;;;11.74;90.26;102189.25;5037237;28;20162;-63
2022/06/12 02:57:11;;;;;;;15.63;4.15;;;;;;;11.77;90.04;102189.97;5050005;28;20109;-63
2022/06/12 02:59:56;;;;;;;9.15;4.13;;;;;;;11.84;89.95;102185.22;5050375;28;20036;-62
2022/06/12 03:02:30;;;;;;;10.13;3.78;;;;;;;11.78;90.28;102180.16;5049934;28;20060;-62
2022/06/12 03:05:02;;;;;;;16.85;4.13;;;;;;;11.70;90.85;102190.31;5050251;28;20041;-62
2022/06/12 03:07:29;;;;;;;11.02;4.30;;;;;;;11.65;90.66;102183.41;5034466;28;20040;-63
2022/06/12 03:09:59;;;;;;;12.88;3.72;;;;;;;11.67;90.98;102186.88;5054439;28;20111;-62
2022/06/12 03:12:27;;;;;;;17.52;4.40;;;;;;;11.78;90.29;102186.34;5053736;28;20032;-62
2022/06/12 03:14:54;;;;;;;14.68;4.68;;;;;;;11.76;90.42;102182.03;5054158;28;20037;-62
2022/06/12 03:17:20;;;;;;;17.83;4.40;;;;;;;11.81;90.25;102180.88;5035223;28;20325;-63
2022/06/12 03:19:49;;;;;;;12.77;3.83;;;;;;;11.80;89.91;102187.16;5050544;28;20032;-63
2022/06/12 03:22:41;;;;;;;13.73;3.85;;;;;;;11.88;90.49;102189.50;5053210;28;20051;-63
2022/06/12 03:25:31;;;;;;;9.90;3.80;;;;;;;11.99;89.29;102197.00;5043358;28;20040;-63
2022/06/12 03:28:11;;;;;;;21.50;4.68;;;;;;;12.18;89.50;102189.84;5054193;28;20067;-64
2022/06/12 03:30:48;;;;;;;12.43;3.97;;;;;;;12.44;88.38;102193.91;5054126;28;20044;-63
2022/06/12 03:33:38;;;;;;;10.30;3.40;;;;;;;12.52;88.22;102193.53;5053009;28;20494;-63
2022/06/12 03:36:08;;;;;;;14.73;3.75;;;;;;;12.78;87.05;102197.56;5053061;28;20067;-63
2022/06/12 03:38:44;;;;;;;15.23;4.25;;;;;;;12.82;87.49;102205.38;5052929;28;20543;-64
2022/06/12 03:41:26;;;;;;;10.40;3.72;;;;;;;12.90;87.13;102194.25;5053496;28;20037;-63
2022/06/12 03:43:58;;;;;;;12.48;3.85;;;;;;;12.88;87.57;102196.16;5053461;28;20132;-63
2022/06/12 03:46:49;;;;;;;13.45;4.00;;;;;;;13.03;87.09;102190.00;5053201;28;20040;-63
2022/06/12 03:49:51;;;;;;;14.23;4.57;;;;;;;13.05;87.05;102190.81;5049623;28;20063;-63
2022/06/12 03:52:25;;;;;;;15.60;3.60;;;;;;;13.26;86.40;102190.66;5052994;28;20044;-63
2022/06/12 03:55:06;;;;;;;16.08;4.35;;;;;;;13.20;87.01;102189.13;5054953;28;20036;-63
2022/06/12 03:57:51;;;;;;;16.10;4.17;;;;;;;13.24;86.47;102190.72;5055237;28;20292;-63
2022/06/12 04:00:35;;;;;;;19.42;4.18;;;;;;;13.24;86.51;102184.50;5054814;28;20459;-63
2022/06/12 04:03:12;;;;;;;10.68;4.50;;;;;;;13.27;86.64;102195.06;5037000;28;20040;-63
2022/06/12 04:05:44;;;;;;;20.30;4.78;;;;;;;13.53;85.60;102191.00;5055217;28;20121;-63
2022/06/12 04:08:20;;;;;;;20.23;4.57;;;;;;;13.23;86.79;102186.31;5054188;28;20870;-62
2022/06/12 04:10:47;;;;;;;14.43;4.22;;;;;;;13.33;86.83;102184.88;5036396;28;20048;-62
2022/06/12 04:13:15;;;;;;;10.18;3.78;;;;;;;13.27;86.60;102179.00;5053019;28;20484;-63
2022/06/12 04:15:54;;;;;;;12.40;4.65;;;;;;;13.48;86.61;102180.53;5053672;28;20055;-63
2022/06/12 04:18:20;;;;;;;23.08;5.18;;;;;;;13.50;86.55;102185.78;5039650;28;20810;-62
2022/06/12 04:20:45;;;;;;;12.73;4.88;;;;;;;13.63;85.99;102186.88;5053923;28;20040;-63
2022/06/12 04:23:30;;;;;;;22.00;5.18;;;;;;;13.66;85.84;102194.75;5052211;28;20036;-63
2022/06/12 04:26:04;;;;;;;14.15;4.22;;;;;;;13.90;85.17;102198.72;5053283;28;20060;-61
2022/06/12 04:28:41;;;;;;;19.50;4.90;;;;;;;13.73;85.56;102193.44;5053798;28;20419;-63
2022/06/12 04:31:12;;;;;;;15.60;4.60;;;;;;;13.95;85.34;102193.13;5053013;28;20060;-63
2022/06/12 04:34:02;;;;;;;11.02;4.50;;;;;;;13.89;85.71;102193.47;5052740;28;20642;-64
2022/06/12 04:36:28;;;;;;;16.20;4.25;;;;;;;13.98;84.52;102203.69;5035042;28;20070;-63
2022/06/12 04:38:53;;;;;;;16.15;4.88;;;;;;;14.25;84.28;102196.75;5035140;28;20070;-62
2022/06/12 04:41:25;;;;;;;12.32;4.57;;;;;;;14.25;83.70;102187.84;5052708;28;20045;-63
2022/06/12 04:43:51;;;;;;;13.02;3.28;;;;;;;14.43;83.40;102186.78;5053182;28;20060;-64
2022/06/12 04:46:17;;;;;;;14.35;4.40;;;;;;;14.57;82.79;102190.53;5053296;28;20126;-63
2022/06/12 04:48:44;;;;;;;22.33;5.10;;;;;;;14.55;82.51;102198.66;5053423;28;20036;-64
2022/06/12 04:51:11;;;;;;;14.95;4.18;;;;;;;14.75;82.12;102192.97;5052756;28;20119;-63
2022/06/12 04:53:37;;;;;;;14.35;4.35;;;;;;;16.31;76.43;102188.59;5053064;28;20045;-64
2022/06/12 04:56:04;;;;;;;17.52;4.53;;;;;;;17.71;70.08;102187.94;5052294;28;20072;-64
2022/06/12 04:58:29;;;;;;;18.65;4.10;;;;;;;18.27;68.04;102184.78;5052587;28;20059;-63
2022/06/12 05:00:55;;;;;;;12.63;4.13;;;;;;;19.18;64.06;102182.34;5051902;28;20746;-65
2022/06/12 05:03:21;;;;;;;9.90;3.60;;;;;;;19.41;63.00;102189.50;5051426;28;20067;-65
2022/06/12 05:05:47;;;;;;;13.15;4.05;;;;;;;20.38;60.26;102185.25;5053229;28;20292;-64
2022/06/12 05:08:14;;;;;;;17.05;4.35;;;;;;;20.62;58.88;102176.91;5051250;28;20036;-64
2022/06/12 05:10:40;;;;;;;13.52;4.03;;;;;;;20.70;58.65;102176.28;5052771;28;20073;-64
2022/06/12 05:13:06;;;;;;;13.18;3.63;;;;;;;21.24;58.38;102166.25;5051989;28;20028;-65
2022/06/12 05:15:32;;;;;;;14.27;4.50;;;;;;;21.61;55.85;102166.59;5051732;28;20730;-64
2022/06/12 05:17:57;;;;;;;13.25;4.53;;;;;;;21.21;57.17;102170.06;5051838;28;20035;-64
2022/06/12 05:20:26;;;;;;;14.68;4.18;;;;;;;21.30;56.06;102161.16;5051032;28;20141;-64
2022/06/12 05:22:53;;;;;;;7.18;3.33;;;;;;;20.87;57.61;102167.56;5052062;28;20032;-64
2022/06/12 05:25:19;;;;;;;14.68;3.92;;;;;;;21.75;55.40;102166.22;5051589;28;20375;-64
2022/06/12 05:27:46;;;;;;;10.10;3.97;;;;;;;21.77;57.37;102158.78;5051875;28;20135;-65
2022/06/12 05:30:15;;;;;;;14.30;5.60;;;;;;;21.07;57.99;102176.69;5032994;28;20844;-64
2022/06/12 05:32:42;;;;;;;15.45;4.13;;;;;;;21.05;58.47;102180.53;5051291;28;20047;-65
2022/06/12 05:35:09;;;;;;;13.23;3.85;;;;;;;21.93;57.39;102167.25;5050453;28;20044;-64
2022/06/12 05:37:36;;;;;;;11.65;3.50;;;;;;;21.17;57.26;102172.19;5051451;28;20170;-65
2022/06/12 05:40:03;;;;;;;13.63;4.35;;;;;;;20.94;58.87;102178.75;5050856;28;20044;-65
2022/06/12 05:42:29;;;;;;;18.55;4.68;;;;;;;21.32;57.11;102174.59;5033025;28;20123;-64
2022/06/12 05:44:54;;;;;;;13.13;4.63;;;;;;;20.85;59.66;102183.09;5051631;28;20041;-64
2022/06/12 05:47:20;;;;;;;15.40;3.92;;;;;;;21.27;58.94;102177.66;5050750;28;20082;-65
2022/06/12 05:49:45;;;;;;;16.20;4.65;;;;;;;22.11;56.79;102172.91;5051329;28;20105;-65
2022/06/12 05:52:11;;;;;;;19.00;4.28;;;;;;;21.62;57.33;102173.72;5050479;28;20385;-64
2022/06/12 05:54:36;;;;;;;12.63;4.28;;;;;;;20.93;59.46;102175.19;5051396;28;20063;-64
2022/06/12 05:57:02;;;;;;;16.20;4.80;;;;;;;21.29;58.22;102172.13;5050690;28;20048;-64
2022/06/12 05:59:28;;;;;;;16.90;4.72;;;;;;;20.62;60.32;102190.47;5051468;28;20045;-65
2022/06/12 06:01:53;;;;;;;10.93;4.22;;;;;;;21.25;58.89;102181.53;5051094;28;20043;-64
2022/06/12 06:04:19;;;;;;;19.98;7.00;;;;;;;20.96;60.10;102187.59;5051072;28;20048;-64
2022/06/12 06:06:51;;;;;;;15.02;4.57;;;;;;;21.50;59.62;102186.53;5052015;28;20124;-65
2022/06/12 06:09:17;;;;;;;18.05;4.65;;;;;;;21.10;60.27;102190.00;5050312;28;20037;-63
2022/06/12 06:11:43;;;;;;;16.13;4.25;;;;;;;22.23;57.42;102182.66;5051541;28;20040;-63
2022/06/12 06:14:09;;;;;;;11.23;4.55;;;;;;;22.15;57.85;102187.09;5050432;28;20051;-64
2022/06/12 06:16:36;;;;;;;10.75;4.40;;;;;;;21.88;58.39;102187.69;5050568;28;20921;-65
2022/06/12 06:19:02;;;;;;;18.20;6.35;;;;;;;21.84;58.78;102192.53;5050623;28;20040;-64
2022/06/12 06:21:28;;;;;;;16.25;4.72;;;;;;;21.95;59.09;102186.16;5051000;28;20040;-64
2022/06/12 06:23:53;;;;;;;20.75;4.15;;;;;;;21.88;59.85;102183.09;5051175;28;20043;-64
2022/06/12 06:26:19;;;;;;;14.13;6.07;;;;;;;22.16;58.77;102184.22;5050248;28;20364;-64
2022/06/12 06:28:45;;;;;;;20.40;4.75;;;;;;;22.35;58.04;102180.69;5033733;28;20032;-64
2022/06/12 06:31:11;;;;;;;14.35;5.20;;;;;;;22.04;57.93;102185.31;5052969;28;20040;-64
2022/06/12 06:33:37;;;;;;;22.40;5.88;;;;;;;21.92;59.55;102187.25;5050864;28;20097;-63
2022/06/12 06:36:03;;;;;;;16.95;5.38;;;;;;;21.67;60.39;102185.03;5050259;28;20040;-63
2022/06/12 06:38:29;;;;;;;12.80;4.93;;;;;;;22.51;58.45;102188.28;5052860;28;20448;-64
2022/06/12 06:40:54;;;;;;;21.30;5.50;;;;;;;21.76;60.60;102194.22;5047567;28;20032;-64
2022/06/12 06:43:20;;;;;;;18.38;5.32;;;;;;;22.20;60.03;102191.09;5031637;28;20033;-64
2022/06/12 06:48:29;;;;;;;18.52;5.57;;;;;;;21.66;61.18;102202.31;5030447;28;20045;-63
2022/06/12 06:50:55;;;;;;;23.50;5.38;;;;;;;22.04;58.51;102198.00;5017518;28;20097;-64
2022/06/12 06:53:21;;;;;;;24.27;5.72;;;;;;;22.46;57.76;102196.00;5030213;28;20037;-64
2022/06/12 06:55:47;;;;;;;22.05;5.57;;;;;;;22.60;58.11;102192.84;5030661;28;20102;-64
2022/06/12 06:58:16;;;;;;;19.48;5.68;;;;;;;22.96;57.70;102198.59;5020184;28;21141;-64
2022/06/12 07:00:43;;;;;;;17.38;5.05;;;;;;;22.94;59.13;102201.47;5040237;28;20471;-64
2022/06/12 07:03:10;;;;;;;19.60;5.53;;;;;;;22.95;59.10;102203.19;5039407;28;20040;-64
2022/06/12 07:05:36;;;;;;;19.83;5.38;;;;;;;23.21;58.93;102206.16;5047162;28;20083;-64
2022/06/12 07:08:03;;;;;;;20.55;5.15;;;;;;;22.21;59.53;102203.69;5042547;28;20048;-63
2022/06/12 07:10:31;;;;;;;19.05;5.25;;;;;;;22.74;57.61;102206.03;5030670;28;20051;-63
2022/06/12 07:12:57;;;;;;;24.40;5.93;;;;;;;22.11;58.16;102207.38;5032531;28;20116;-63
2022/06/12 07:15:24;;;;;;;18.30;4.43;;;;;;;22.54;57.23;102209.75;5030070;28;20055;-64
2022/06/12 07:17:50;;;;;;;28.10;5.20;;;;;;;22.89;60.86;102202.88;5031836;28;20068;-64
2022/06/12 07:20:20;;;;;;;21.02;4.80;;;;;;;23.59;56.66;102195.28;5020402;28;20448;-64
2022/06/12 07:22:46;;;;;;;22.17;5.18;;;;;;;23.00;56.20;102200.88;5048398;28;20037;-63
2022/06/12 07:25:13;;;;;;;19.95;5.30;;;;;;;23.77;55.73;102201.69;5029801;28;20070;-64
2022/06/12 07:27:39;;;;;;;19.13;5.15;;;;;;;23.98;53.84;102205.03;5052248;28;20111;-63
2022/06/12 07:30:08;;;;;;;18.65;4.93;;;;;;;24.30;54.13;102200.97;5047045;28;20879;-63
2022/06/12 07:32:34;;;;;;;16.27;4.50;;;;;;;23.17;55.58;102204.72;5045145;28;20532;-63
2022/06/12 07:35:00;;;;;;;13.95;4.80;;;;;;;23.36;55.21;102206.53;5048204;28;20035;-64
2022/06/12 07:37:25;;;;;;;13.35;3.38;;;;;;;22.72;57.48;102210.75;5041619;28;20037;-64
2022/06/12 07:39:51;;;;;;;17.60;4.20;;;;;;;23.87;53.94;102210.69;5032304;28;20048;-64
2022/06/12 07:42:16;;;;;;;17.73;4.47;;;;;;;23.64;55.41;102209.34;5030876;28;20407;-63
2022/06/12 07:44:42;;;;;;;16.63;3.42;;;;;;;24.03;54.09;102208.16;5040201;28;20757;-64
2022/06/12 07:47:08;;;;;;;16.63;4.60;;;;;;;24.82;51.95;102201.16;5041546;28;20393;-63
2022/06/12 07:49:34;;;;;;;16.73;4.35;;;;;;;24.22;52.50;102203.59;5043160;28;20079;-63
2022/06/12 07:52:03;;;;;;;20.48;4.93;;;;;;;23.97;53.94;102210.63;5037105;28;20042;-64
2022/06/12 07:54:30;;;;;;;24.73;4.60;;;;;;;24.20;51.37;102202.91;5053921;28;20071;-63
2022/06/12 07:56:56;;;;;;;411.55;38.28;;;;;;;22.75;55.89;102215.91;5048344;28;20040;-64
2022/06/12 07:59:23;;;;;;;16.80;5.07;;;;;;;23.21;55.79;102214.31;5041949;28;20147;-62
2022/06/12 08:01:50;;;;;;;15.70;4.75;;;;;;;23.27;58.61;102216.44;5047585;28;20879;-63
2022/06/12 08:04:16;;;;;;;14.43;3.38;;;;;;;23.61;54.69;102215.91;5032460;28;20457;-62
2022/06/12 08:06:42;;;;;;;13.07;4.13;;;;;;;23.71;54.85;102215.91;5050968;28;20036;-63
2022/06/12 08:09:10;;;;;;;13.60;3.45;;;;;;;23.04;54.74;102223.19;5048137;28;20526;-64
2022/06/12 08:11:37;;;;;;;12.20;3.65;;;;;;;23.05;54.67;102216.78;5048822;28;20024;-63
2022/06/12 08:14:03;;;;;;;16.00;5.03;;;;;;;23.09;55.30;102220.91;5065717;28;20036;-64
2022/06/12 08:16:29;;;;;;;15.43;4.43;;;;;;;23.10;55.20;102216.34;5059024;28;20768;-64
2022/06/12 08:18:55;;;;;;;15.20;3.92;;;;;;;23.00;54.27;102217.22;5054722;28;20037;-64
2022/06/12 08:21:21;;;;;;;12.93;5.00;;;;;;;22.78;55.73;102206.59;5052004;28;20118;-62
2022/06/12 08:23:49;;;;;;;6.22;3.45;;;;;;;22.99;55.78;102214.63;5067380;28;20028;-63
2022/06/12 08:26:28;;;;;;;16.08;4.63;;;;;;;22.81;57.56;102217.19;5064607;28;20071;-63
2022/06/12 08:29:02;;;;;;;12.27;3.70;;;;;;;23.36;54.08;102213.84;5032280;28;20041;-63
2022/06/12 08:31:38;;;;;;;9.52;3.20;;;;;;;23.57;53.50;102213.63;5046374;28;20063;-64
2022/06/12 08:34:09;;;;;;;13.75;4.60;;;;;;;23.71;52.75;102214.06;5042231;28;20167;-63
2022/06/12 08:36:36;;;;;;;9.38;2.83;;;;;;;23.13;54.63;102207.88;5046771;28;20042;-64
2022/06/12 08:39:04;;;;;;;10.50;4.00;;;;;;;22.94;53.04;102214.19;5038220;28;20057;-64
2022/06/12 08:41:52;;;;;;;11.35;3.72;;;;;;;23.30;55.95;102206.28;5036494;28;20391;-63
2022/06/12 08:44:33;;;;;;;17.52;4.47;;;;;;;22.77;55.20;102210.31;5045130;28;20032;-63
2022/06/12 08:47:08;;;;;;;11.15;3.33;;;;;;;23.51;57.68;102207.78;5055073;28;20056;-64
2022/06/12 08:49:56;;;;;;;14.75;4.25;;;;;;;23.31;55.04;102200.69;5046322;28;20063;-64
2022/06/12 08:52:30;;;;;;;15.00;4.15;;;;;;;23.77;55.26;102196.25;5046465;28;20143;-64
2022/06/12 08:55:25;;;;;;;13.35;4.18;;;;;;;23.48;56.17;102189.00;5038959;28;20064;-63
2022/06/12 08:58:28;;;;;;;16.42;4.18;;;;;;;23.47;54.37;102191.88;5045445;28;20032;-64
2022/06/12 09:00:54;;;;;;;13.13;3.58;;;;;;;24.55;54.35;102191.22;5040253;28;20788;-64
2022/06/12 09:03:24;;;;;;;10.43;3.20;;;;;;;24.94;51.88;102188.97;5035801;28;20041;-64
2022/06/12 09:05:52;;;;;;;11.70;3.28;;;;;;;24.71;50.36;102177.72;5019263;28;20047;-63
2022/06/12 09:08:43;;;;;;;10.27;3.00;;;;;;;25.31;51.43;102174.25;5061135;28;20155;-63
2022/06/12 09:11:41;;;;;;;7.65;2.70;;;;;;;25.01;49.20;102181.03;5040442;28;20592;-65
2022/06/12 09:14:33;;;;;;;14.85;3.00;;;;;;;24.86;49.73;102179.88;5033873;28;20133;-63
2022/06/12 09:17:35;;;;;;;10.75;2.42;;;;;;;23.75;51.29;102174.63;5033639;28;20036;-64
2022/06/12 09:20:14;;;;;;;10.85;2.75;;;;;;;24.61;50.41;102167.91;5049568;28;20384;-65
2022/06/12 09:23:02;;;;;;;11.27;3.30;;;;;;;24.02;50.81;102162.84;5043514;28;20045;-64
2022/06/12 09:25:32;;;;;;;13.57;2.17;;;;;;;24.55;49.38;102166.66;5040724;28;20274;-65
2022/06/12 09:28:32;;;;;;;8.77;1.98;;;;;;;24.75;48.84;102157.28;5048437;28;20028;-65
2022/06/12 09:31:13;;;;;;;9.52;2.45;;;;;;;25.12;49.21;102160.81;5036386;28;20112;-66
2022/06/12 09:33:45;;;;;;;7.50;1.57;;;;;;;25.26;46.30;102157.50;5041592;28;20143;-67
2022/06/12 09:36:25;;;;;;;10.73;2.25;;;;;;;24.87;46.10;102149.69;5047669;28;20118;-64
2022/06/12 09:39:09;;;;;;;10.10;2.28;;;;;;;25.05;47.71;102147.78;5038908;28;20048;-65
2022/06/12 09:41:44;;;;;;;12.10;2.63;;;;;;;24.90;45.81;102156.69;5030880;28;20079;-65
2022/06/12 09:44:46;;;;;;;9.82;2.00;;;;;;;25.00;47.52;102158.34;5049769;28;20068;-65
2022/06/12 09:47:19;;;;;;;8.15;1.35;;;;;;;24.89;46.92;102158.56;5049663;28;20572;-66
2022/06/12 09:50:02;;;;;;;7.22;1.40;;;;;;;24.26;45.00;102162.25;5051397;28;20063;-65
2022/06/12 09:52:49;;;;;;;6.00;1.85;;;;;;;24.28;44.26;102159.34;5034205;28;20045;-66
2022/06/12 09:55:29;;;;;;;7.63;1.95;;;;;;;24.13;42.52;102158.19;5047809;28;20044;-65
2022/06/12 09:57:56;;;;;;;4.78;1.65;;;;;;;24.05;46.18;102158.97;5041673;28;20040;-64
2022/06/12 10:00:38;;;;;;;5.70;1.40;;;;;;;24.46;45.42;102154.81;5049737;28;20863;-63
2022/06/12 10:03:21;;;;;;;8.75;2.17;;;;;;;24.52;44.43;102164.22;5031458;28;20076;-64
2022/06/12 10:05:58;;;;;;;8.20;1.98;;;;;;;24.10;45.03;102156.63;5039442;28;20964;-65
2022/06/12 10:08:39;;;;;;;5.57;1.83;;;;;;;24.48;45.47;102160.94;5059528;28;20754;-65
2022/06/12 10:11:19;;;;;;;11.63;1.58;;;;;;;24.05;43.03;102161.69;5030245;28;20045;-65
2022/06/12 10:13:53;;;;;;;5.82;1.85;;;;;;;24.94;43.32;102153.50;5052086;28;20184;-64
2022/06/12 10:16:26;;;;;;;7.65;1.83;;;;;;;25.01;43.85;102151.00;5045611;28;20040;-67
2022/06/12 10:19:14;;;;;;;7.65;1.30;;;;;;;24.61;43.37;102163.31;5050380;28;20029;-63
2022/06/12 10:21:44;;;;;;;5.60;2.28;;;;;;;24.95;43.45;102157.94;5036915;28;20048;-64
2022/06/12 10:24:11;;;;;;;11.88;1.80;;;;;;;24.95;44.21;102157.94;5045867;28;20387;-63
2022/06/12 10:26:37;;;;;;;5.78;1.63;;;;;;;25.05;43.79;102155.97;5048498;28;20044;-64
2022/06/12 10:29:13;;;;;;;7.55;1.77;;;;;;;25.15;44.24;102155.03;5040088;28;20120;-64
2022/06/12 10:31:54;;;;;;;7.35;1.83;;;;;;;25.25;42.45;102153.03;5036395;28;20043;-64
2022/06/12 10:34:23;;;;;;;4.38;1.50;;;;;;;25.31;44.10;102156.00;5037725;28;20032;-64
2022/06/12 10:36:49;;;;;;;5.60;1.50;;;;;;;25.01;42.96;102156.47;5042197;28;20032;-63
2022/06/12 10:39:19;;;;;;;7.03;1.88;;;;;;;24.99;42.68;102150.28;5034686;28;20053;-64
2022/06/12 10:41:53;;;;;;;6.60;1.60;;;;;;;24.57;44.73;102163.78;5034237;28;20043;-65
2022/06/12 10:44:56;;;;;;;7.85;2.05;;;;;;;24.74;44.02;102163.72;5019121;28;20071;-65
2022/06/12 10:47:29;;;;;;;8.15;2.30;;;;;;;24.93;45.16;102153.66;5047359;28;20144;-64
2022/06/12 10:50:17;;;;;;;9.48;2.22;;;;;;;24.20;44.32;102140.22;5045539;28;20063;-63
2022/06/12 10:53:14;;;;;;;5.47;2.22;;;;;;;24.56;46.05;102159.34;5046346;28;20136;-64
2022/06/12 10:56:02;;;;;;;16.00;3.53;;;;;;;24.31;45.47;102148.16;5046155;28;20041;-64
2022/06/12 10:58:56;;;;;;;7.45;2.28;;;;;;;24.46;43.79;102143.91;5046014;28;20135;-63
2022/06/12 11:01:35;;;;;;;9.13;2.67;;;;;;;24.60;44.36;102145.22;4999305;28;21035;-63
2022/06/12 11:04:11;;;;;;;8.27;2.05;;;;;;;24.96;46.33;102140.56;5044140;28;20403;-63
2022/06/12 11:06:58;;;;;;;8.40;2.75;;;;;;;24.77;45.04;102144.31;5027982;28;20566;-64
2022/06/12 11:09:41;;;;;;;9.35;2.10;;;;;;;25.02;44.69;102133.59;5039980;28;20832;-65
2022/06/12 11:12:33;;;;;;;12.05;3.20;;;;;;;24.64;45.00;102149.31;5049300;28;20055;-64
2022/06/12 11:15:07;;;;;;;6.40;2.38;;;;;;;25.57;45.91;102134.09;5033318;28;20045;-64
2022/06/12 11:17:41;;;;;;;6.03;2.40;;;;;;;25.51;43.92;102134.78;5030673;28;20056;-64
2022/06/12 11:20:30;;;;;;;10.65;2.35;;;;;;;25.33;42.02;102139.44;5042412;28;20048;-64
2022/06/12 11:23:24;;;;;;;10.68;3.10;;;;;;;24.72;44.47;102145.81;5043774;28;20029;-64
2022/06/12 11:26:14;;;;;;;7.28;2.22;;;;;;;24.52;44.49;102126.91;5032598;28;20517;-64
2022/06/12 11:29:17;;;;;;;18.45;3.13;;;;;;;24.14;45.63;102132.63;5037816;28;20032;-64
2022/06/12 11:32:16;;;;;;;11.02;2.67;;;;;;;24.84;45.77;102135.50;5031096;28;20123;-64
2022/06/12 11:35:21;;;;;;;10.57;3.45;;;;;;;23.74;46.59;102134.72;5051799;28;20055;-64
2022/06/12 11:38:24;;;;;;;7.75;2.20;;;;;;;24.93;44.25;102127.22;5045997;28;20051;-63
2022/06/12 11:41:04;;;;;;;7.47;2.70;;;;;;;24.67;45.54;102129.94;5040881;28;20045;-64
2022/06/12 11:43:40;;;;;;;7.68;2.58;;;;;;;24.77;44.45;102121.66;5052489;28;20059;-63
2022/06/12 11:46:14;;;;;;;7.60;3.00;;;;;;;24.87;43.09;102118.81;5048668;28;20123;-62
2022/06/12 11:49:13;;;;;;;9.98;2.40;;;;;;;24.92;43.81;102124.66;5032037;28;20033;-64
2022/06/12 11:52:05;;;;;;;11.93;2.50;;;;;;;25.33;45.74;102111.28;5031113;28;20045;-63
2022/06/12 11:55:12;;;;;;;11.65;2.50;;;;;;;25.74;43.19;102112.31;5042568;28;20044;-64
2022/06/12 11:57:38;;;;;;;7.45;3.05;;;;;;;24.91;44.45;102115.63;4992344;28;20803;-64